Time,TemperatureF,DewpointF,PressureIn,WindDirection,WindDirectionDegrees,WindSpeedMPH,WindSpeedGustMPH,Humidity,HourlyPrecipIn,Conditions,Clouds,dailyrainin,SolarRadiationWatts/m^2,SoftwareType,DateUTC
2013-02-27 00:00:00,60.0,58.3,29.62,WSW,244,3.0,3.0,94,0.00,,,0.00,0,Wunderground v.1.15,2013-02-27 05:00:00,
2013-02-27 00:05:00,59.9,58.2,29.62,WSW,248,0.0,3.0,94,0.00,,,0.00,0,Wunderground v.1.15,2013-02-27 05:05:00,
2013-02-27 00:15:00,59.3,57.9,29.61,South,183,3.0,3.0,95,0.00,,,0.00,0,Wunderground v.1.15,2013-02-27 05:15:00,
2013-02-27 00:20:00,59.1,57.4,29.62,West,262,1.0,1.0,94,0.00,,,0.00,0,Wunderground v.1.15,2013-02-27 05:20:00,
2013-02-27 00:30:00,58.7,57.3,29.63,SW,235,5.0,5.0,95,0.00,,,0.00,0,Wunderground v.1.15,2013-02-27 05:30:00,
2013-02-27 00:40:00,58.3,56.9,29.63,WSW,258,0.0,0.0,95,0.00,,,0.00,0,Wunderground v.1.15,2013-02-27 05:40:00,
2013-02-27 00:50:00,58.0,56.6,29.63,WSW,258,0.0,0.0,95,0.00,,,0.00,0,Wunderground v.1.15,2013-02-27 05:50:00,
2013-02-27 01:00:00,57.6,56.2,29.63,WSW,258,0.0,0.0,95,0.00,,,0.00,0,Wunderground v.1.15,2013-02-27 06:00:00,
2013-02-27 01:10:00,57.1,55.7,29.63,West,259,0.0,0.0,95,0.00,,,0.00,0,Wunderground v.1.15,2013-02-27 06:10:00,
2013-02-27 01:20:00,56.5,55.1,29.63,West,259,0.0,0.0,95,0.00,,,0.00,0,Wunderground v.1.15,2013-02-27 06:20:00,
2013-02-27 01:30:00,56.1,55.0,29.63,WSW,258,0.0,0.0,96,0.00,,,0.00,0,Wunderground v.1.15,2013-02-27 06:30:00,
2013-02-27 01:40:00,55.8,54.4,29.64,West,259,0.0,0.0,95,0.00,,,0.00,0,Wunderground v.1.15,2013-02-27 06:40:00,
2013-02-27 01:50:00,55.3,53.6,29.64,West,259,0.0,0.0,94,0.00,,,0.00,0,Wunderground v.1.15,2013-02-27 06:50:00,
2013-02-27 02:00:00,54.8,52.8,29.64,WSW,258,0.0,0.0,93,0.00,,,0.00,0,Wunderground v.1.15,2013-02-27 07:00:00,
2013-02-27 02:10:00,54.6,52.3,29.64,WSW,258,0.0,0.0,92,0.00,,,0.00,0,Wunderground v.1.15,2013-02-27 07:10:00,
2013-02-27 02:20:00,54.2,52.5,29.63,WSW,258,0.0,0.0,94,0.00,,,0.00,0,Wunderground v.1.15,2013-02-27 07:20:00,
2013-02-27 02:30:00,53.7,51.4,29.64,WSW,258,0.0,0.0,92,0.00,,,0.00,0,Wunderground v.1.15,2013-02-27 07:30:00,
2013-02-27 02:35:00,53.7,51.7,29.64,WSW,258,0.0,0.0,93,0.00,,,0.00,0,Wunderground v.1.15,2013-02-27 07:35:00,
2013-02-27 02:45:00,53.6,51.9,29.64,West,259,0.0,2.0,94,0.00,,,0.00,0,Wunderground v.1.15,2013-02-27 07:45:00,
2013-02-27 02:50:00,53.9,52.2,29.65,WNW,301,2.0,2.0,94,0.00,,,0.00,0,Wunderground v.1.15,2013-02-27 07:50:00,
2013-02-27 02:55:00,54.6,52.9,29.64,WNW,300,4.0,4.0,94,0.00,,,0.00,0,Wunderground v.1.15,2013-02-27 07:55:00,
2013-02-27 03:00:00,52.8,51.7,29.65,WNW,292,0.0,4.0,96,0.00,,,-99.99,,WeatherLink 5.9.2,2013-02-27 08:00:00,
2013-02-27 03:05:00,55.2,53.5,29.64,NW,309,1.0,1.0,94,0.00,,,0.00,0,Wunderground v.1.15,2013-02-27 08:05:00,
2013-02-27 03:10:00,55.2,53.5,29.64,WNW,303,4.0,4.0,94,0.00,,,0.00,0,Wunderground v.1.15,2013-02-27 08:10:00,
2013-02-27 03:20:00,54.9,53.2,29.64,WNW,298,2.0,2.0,94,0.00,,,0.00,0,Wunderground v.1.15,2013-02-27 08:20:00,
2013-02-27 03:30:00,54.2,52.5,29.64,WNW,297,0.0,0.0,94,0.00,,,0.00,0,Wunderground v.1.15,2013-02-27 08:30:00,
2013-02-27 03:35:00,53.8,52.1,29.64,WNW,297,0.0,0.0,94,0.00,,,0.00,0,Wunderground v.1.15,2013-02-27 08:35:00,
2013-02-27 03:45:00,52.9,51.2,29.65,WNW,297,0.0,0.0,94,0.00,,,0.00,0,Wunderground v.1.15,2013-02-27 08:45:00,
2013-02-27 03:55:00,52.3,50.9,29.65,WNW,297,3.0,3.0,95,0.00,,,0.00,0,Wunderground v.1.15,2013-02-27 08:55:00,
2013-02-27 04:00:00,51.1,50.0,29.69,West,270,2.0,7.0,96,0.00,,,-99.99,,WeatherLink 5.9.2,2013-02-27 09:00:00,
2013-02-27 04:05:00,52.7,51.3,29.65,WNW,289,0.0,0.0,95,0.00,,,0.00,0,Wunderground v.1.15,2013-02-27 09:05:00,
2013-02-27 04:10:00,52.8,51.4,29.66,WSW,241,2.0,2.0,95,0.00,,,0.00,0,Wunderground v.1.15,2013-02-27 09:10:00,
2013-02-27 04:20:00,52.5,51.4,29.67,WSW,251,0.0,0.0,96,0.00,,,0.00,0,Wunderground v.1.15,2013-02-27 09:20:00,
2013-02-27 04:30:00,52.0,50.6,29.67,WSW,258,0.0,0.0,95,0.00,,,0.00,0,Wunderground v.1.15,2013-02-27 09:30:00,
2013-02-27 04:40:00,51.5,50.1,29.68,WNW,289,3.0,3.0,95,0.00,,,0.00,0,Wunderground v.1.15,2013-02-27 09:40:00,
2013-02-27 04:50:00,51.0,49.9,29.68,WSW,245,2.0,2.0,96,0.00,,,0.00,0,Wunderground v.1.15,2013-02-27 09:50:00,
2013-02-27 05:00:00,50.7,49.6,29.69,West,263,1.0,1.0,96,0.00,,,0.00,0,Wunderground v.1.15,2013-02-27 10:00:00,
2013-02-27 05:10:00,50.6,49.5,29.69,WNW,301,3.0,3.0,96,0.00,,,0.00,0,Wunderground v.1.15,2013-02-27 10:10:00,
2013-02-27 05:20:00,50.2,48.5,29.70,West,281,2.0,2.0,94,0.00,,,0.00,0,Wunderground v.1.15,2013-02-27 10:20:00,
2013-02-27 05:30:00,50.2,48.8,29.70,WSW,254,4.0,4.0,95,0.00,,,0.00,0,Wunderground v.1.15,2013-02-27 10:30:00,
2013-02-27 05:40:00,49.8,48.1,29.70,WSW,255,4.0,4.0,94,0.00,,,0.00,0,Wunderground v.1.15,2013-02-27 10:40:00,
2013-02-27 05:45:00,49.6,47.9,29.71,NNW,345,0.0,4.0,94,0.00,,,0.00,0,Wunderground v.1.15,2013-02-27 10:45:00,
2013-02-27 05:55:00,49.5,47.8,29.71,WNW,294,0.0,11.0,94,0.00,,,0.00,0,Wunderground v.1.15,2013-02-27 10:55:00,
2013-02-27 06:00:00,49.4,47.5,29.71,West,275,3.0,3.0,93,0.00,,,0.00,0,Wunderground v.1.15,2013-02-27 11:00:00,
2013-02-27 06:10:00,49.3,46.8,29.71,West,281,2.0,2.0,91,0.00,,,0.00,0,Wunderground v.1.15,2013-02-27 11:10:00,
2013-02-27 06:20:00,49.0,46.5,29.71,WNW,294,0.0,0.0,91,0.00,,,0.00,0,Wunderground v.1.15,2013-02-27 11:20:00,
2013-02-27 06:30:00,48.8,46.3,29.72,WSW,257,4.0,4.0,91,0.00,,,0.00,0,Wunderground v.1.15,2013-02-27 11:30:00,
2013-02-27 06:40:00,48.4,45.6,29.72,WSW,246,0.0,0.0,90,0.00,,,0.00,0,Wunderground v.1.15,2013-02-27 11:40:00,
2013-02-27 06:45:00,48.3,45.2,29.71,WSW,238,5.0,5.0,89,0.00,,,0.00,0,Wunderground v.1.15,2013-02-27 11:45:00,
2013-02-27 06:55:00,48.2,44.8,29.72,SW,228,3.0,3.0,88,0.00,,,0.00,0,Wunderground v.1.15,2013-02-27 11:55:00,
2013-02-27 07:00:00,49.9,41.6,29.76,West,270,7.0,20.0,73,0.00,,,-99.99,,WeatherLink 5.9.2,2013-02-27 12:00:00,
2013-02-27 07:05:00,48.1,44.4,29.72,WSW,246,4.0,4.0,87,0.00,,,0.00,0,Wunderground v.1.15,2013-02-27 12:05:00,
2013-02-27 07:10:00,48.3,44.3,29.72,WSW,241,1.0,1.0,86,0.00,,,0.00,0,Wunderground v.1.15,2013-02-27 12:10:00,
2013-02-27 07:20:00,48.6,43.4,29.73,WSW,252,4.0,4.0,82,0.00,,,0.00,0,Wunderground v.1.15,2013-02-27 12:20:00,
2013-02-27 07:25:00,48.8,43.5,29.73,West,280,4.0,4.0,82,0.00,,,0.00,0,Wunderground v.1.15,2013-02-27 12:25:00,
2013-02-27 07:30:00,51.0,41.6,29.77,West,270,9.0,20.0,70,0.00,,,-99.99,,WeatherLink 5.9.2,2013-02-27 12:30:00,
2013-02-27 07:35:00,48.9,43.6,29.74,WNW,284,7.0,7.0,82,0.00,,,0.00,0,Wunderground v.1.15,2013-02-27 12:35:00,
2013-02-27 07:40:00,49.2,43.3,29.74,West,263,7.0,7.0,80,0.00,,,0.00,0,Wunderground v.1.15,2013-02-27 12:40:00,
2013-02-27 07:50:00,50.1,43.2,29.75,West,264,9.0,9.0,77,0.00,,,0.00,0,Wunderground v.1.15,2013-02-27 12:50:00,
2013-02-27 07:55:00,50.3,43.0,29.75,West,271,10.0,10.0,76,0.00,,,0.00,0,Wunderground v.1.15,2013-02-27 12:55:00,
2013-02-27 08:00:00,52.3,41.3,29.78,WNW,292,9.0,23.0,66,0.00,,,-99.99,,WeatherLink 5.9.2,2013-02-27 13:00:00,
2013-02-27 08:05:00,50.9,42.6,29.76,West,272,9.0,9.0,73,0.00,,,0.00,0,Wunderground v.1.15,2013-02-27 13:05:00,
2013-02-27 08:10:00,51.1,42.0,29.75,West,270,5.0,5.0,71,0.00,,,0.00,0,Wunderground v.1.15,2013-02-27 13:10:00,
2013-02-27 08:20:00,50.8,41.7,29.76,West,277,9.0,9.0,71,0.00,,,0.00,0,Wunderground v.1.15,2013-02-27 13:20:00,
2013-02-27 08:30:00,51.0,41.6,29.77,WNW,297,6.0,6.0,70,0.00,,,0.00,0,Wunderground v.1.15,2013-02-27 13:30:00,
2013-02-27 08:40:00,51.7,41.1,29.78,West,276,5.0,5.0,67,0.00,,,0.00,0,Wunderground v.1.15,2013-02-27 13:40:00,
2013-02-27 08:50:00,52.2,41.2,29.78,WNW,297,11.0,11.0,66,0.00,,,0.00,0,Wunderground v.1.15,2013-02-27 13:50:00,
2013-02-27 09:00:00,52.9,42.2,29.78,WSW,249,11.0,11.0,67,0.00,,,0.00,0,Wunderground v.1.15,2013-02-27 14:00:00,
2013-02-27 09:10:00,53.6,42.1,29.78,WSW,248,10.0,10.0,65,0.00,,,0.00,0,Wunderground v.1.15,2013-02-27 14:10:00,
2013-02-27 09:20:00,53.7,42.2,29.78,NW,304,7.0,7.0,65,0.00,,,0.00,0,Wunderground v.1.15,2013-02-27 14:20:00,
2013-02-27 09:30:00,53.6,41.7,29.78,West,277,7.0,7.0,64,0.00,,,0.00,0,Wunderground v.1.15,2013-02-27 14:30:00,
2013-02-27 09:40:00,53.5,42.0,29.79,WNW,291,12.0,12.0,65,0.00,,,0.00,0,Wunderground v.1.15,2013-02-27 14:40:00,
2013-02-27 09:50:00,53.1,41.6,29.79,West,261,8.0,8.0,65,0.00,,,0.00,0,Wunderground v.1.15,2013-02-27 14:50:00,
2013-02-27 10:00:00,53.4,41.9,29.79,WNW,291,6.0,6.0,65,0.00,,,0.00,0,Wunderground v.1.15,2013-02-27 15:00:00,
2013-02-27 10:10:00,53.6,41.7,29.79,West,274,5.0,5.0,64,0.00,,,0.00,0,Wunderground v.1.15,2013-02-27 15:10:00,
2013-02-27 10:20:00,54.1,43.0,29.79,WNW,290,2.0,2.0,66,0.00,,,0.00,0,Wunderground v.1.15,2013-02-27 15:20:00,
2013-02-27 10:30:00,54.2,42.7,29.80,WNW,283,10.0,10.0,65,0.00,,,0.00,0,Wunderground v.1.15,2013-02-27 15:30:00,
2013-02-27 10:40:00,54.3,42.8,29.81,WSW,256,8.0,8.0,65,0.00,,,0.00,0,Wunderground v.1.15,2013-02-27 15:40:00,
2013-02-27 10:50:00,54.5,43.0,29.80,West,274,6.0,6.0,65,0.00,,,0.00,0,Wunderground v.1.15,2013-02-27 15:50:00,
2013-02-27 11:00:00,55.0,43.0,29.80,WNW,294,9.0,9.0,64,0.00,,,0.00,0,Wunderground v.1.15,2013-02-27 16:00:00,
2013-02-27 11:10:00,55.7,43.3,29.80,WNW,297,5.0,5.0,63,0.00,,,0.00,0,Wunderground v.1.15,2013-02-27 16:10:00,
2013-02-27 11:20:00,56.5,43.6,29.79,NW,313,3.0,3.0,62,0.00,,,0.00,0,Wunderground v.1.15,2013-02-27 16:20:00,
2013-02-27 11:25:00,57.0,43.7,29.79,NW,309,5.0,5.0,61,0.00,,,0.00,0,Wunderground v.1.15,2013-02-27 16:25:00,
2013-02-27 11:30:00,58.1,43.4,29.78,WNW,292,6.0,15.0,58,0.00,,,-99.99,,WeatherLink 5.9.2,2013-02-27 16:30:00,
2013-02-27 11:35:00,57.3,44.8,29.79,WNW,299,4.0,9.0,63,0.00,,,0.00,0,Wunderground v.1.15,2013-02-27 16:35:00,
2013-02-27 11:40:00,57.6,44.7,29.79,WSW,257,0.0,0.0,62,0.00,,,0.00,0,Wunderground v.1.15,2013-02-27 16:40:00,
2013-02-27 11:50:00,57.5,44.1,29.79,West,263,8.0,8.0,61,0.00,,,0.00,0,Wunderground v.1.15,2013-02-27 16:50:00,
2013-02-27 11:55:00,57.5,43.7,29.78,NW,313,5.0,8.0,60,0.00,,,0.00,0,Wunderground v.1.15,2013-02-27 16:55:00,
2013-02-27 12:00:00,59.0,43.3,29.76,WSW,247,5.0,12.0,56,0.00,,,-99.99,,WeatherLink 5.9.2,2013-02-27 17:00:00,
2013-02-27 12:05:00,57.9,43.7,29.78,WSW,243,3.0,3.0,59,0.00,,,0.00,0,Wunderground v.1.15,2013-02-27 17:05:00,
2013-02-27 12:10:00,58.0,43.7,29.78,WNW,283,6.0,6.0,59,0.00,,,0.00,0,Wunderground v.1.15,2013-02-27 17:10:00,
2013-02-27 12:20:00,58.2,43.9,29.77,NNW,342,0.0,0.0,59,0.00,,,0.00,0,Wunderground v.1.15,2013-02-27 17:20:00,
2013-02-27 12:30:00,58.3,43.1,29.78,West,273,8.0,8.0,57,0.00,,,0.00,0,Wunderground v.1.15,2013-02-27 17:30:00,
2013-02-27 12:40:00,58.7,44.0,29.78,WNW,295,6.0,6.0,58,0.00,,,0.00,0,Wunderground v.1.15,2013-02-27 17:40:00,
2013-02-27 12:50:00,59.1,43.4,29.78,WNW,292,5.0,5.0,56,0.00,,,0.00,0,Wunderground v.1.15,2013-02-27 17:50:00,
2013-02-27 13:00:00,59.5,43.8,29.77,WNW,289,4.0,4.0,56,0.00,,,0.00,0,Wunderground v.1.15,2013-02-27 18:00:00,
2013-02-27 13:05:00,59.7,43.5,29.76,West,270,10.0,10.0,55,0.00,,,0.00,0,Wunderground v.1.15,2013-02-27 18:05:00,
2013-02-27 13:15:00,59.9,43.7,29.76,NW,323,4.0,4.0,55,0.00,,,0.00,0,Wunderground v.1.15,2013-02-27 18:15:00,
2013-02-27 13:25:00,60.2,44.0,29.75,NNW,342,2.0,2.0,55,0.00,,,0.00,0,Wunderground v.1.15,2013-02-27 18:25:00,
2013-02-27 13:30:00,60.6,44.8,29.75,West,274,3.0,3.0,56,0.00,,,0.00,0,Wunderground v.1.15,2013-02-27 18:30:00,
2013-02-27 13:40:00,60.7,43.5,29.75,West,277,2.0,2.0,53,0.00,,,0.00,0,Wunderground v.1.15,2013-02-27 18:40:00,
2013-02-27 13:50:00,61.1,42.8,29.75,West,274,5.0,5.0,51,0.00,,,0.00,0,Wunderground v.1.15,2013-02-27 18:50:00,
2013-02-27 14:00:00,61.0,41.7,29.75,WNW,298,6.0,6.0,49,0.00,,,0.00,0,Wunderground v.1.15,2013-02-27 19:00:00,
2013-02-27 14:10:00,61.0,42.7,29.75,SSW,203,0.0,0.0,51,0.00,,,0.00,0,Wunderground v.1.15,2013-02-27 19:10:00,
2013-02-27 14:15:00,61.4,42.6,29.75,West,262,3.0,3.0,50,0.00,,,0.00,0,Wunderground v.1.15,2013-02-27 19:15:00,
2013-02-27 14:25:00,61.6,42.8,29.75,WSW,252,4.0,9.0,50,0.00,,,0.00,0,Wunderground v.1.15,2013-02-27 19:25:00,
2013-02-27 14:30:00,59.7,45.3,29.76,SW,225,5.0,15.0,59,0.00,,,-99.99,,WeatherLink 5.9.2,2013-02-27 19:30:00,
2013-02-27 14:35:00,62.4,43.0,29.75,NW,306,0.0,1.0,49,0.00,,,0.00,0,Wunderground v.1.15,2013-02-27 19:35:00,
2013-02-27 14:45:00,62.0,45.2,29.76,SW,226,5.0,5.0,54,0.00,,,0.00,0,Wunderground v.1.15,2013-02-27 19:45:00,
2013-02-27 14:50:00,61.8,45.5,29.76,SSW,202,0.0,0.0,55,0.00,,,0.00,0,Wunderground v.1.15,2013-02-27 19:50:00,
2013-02-27 15:00:00,61.2,44.9,29.76,SW,222,5.0,5.0,55,0.00,,,0.00,0,Wunderground v.1.15,2013-02-27 20:00:00,
2013-02-27 15:05:00,60.6,44.8,29.75,SSW,212,4.0,5.0,56,0.00,,,0.00,0,Wunderground v.1.15,2013-02-27 20:05:00,
2013-02-27 15:15:00,59.7,45.3,29.76,South,186,7.0,12.0,59,0.00,,,0.00,0,Wunderground v.1.15,2013-02-27 20:15:00,
2013-02-27 15:25:00,59.5,44.7,29.76,SSW,197,4.0,4.0,58,0.00,,,0.00,0,Wunderground v.1.15,2013-02-27 20:25:00,
2013-02-27 15:30:00,58.2,45.2,29.76,SW,225,5.0,13.0,62,0.00,,,-99.99,,WeatherLink 5.9.2,2013-02-27 20:30:00,
2013-02-27 15:35:00,59.2,44.9,29.76,SW,225,1.0,8.0,59,0.00,,,0.00,0,Wunderground v.1.15,2013-02-27 20:35:00,
2013-02-27 15:40:00,59.6,45.2,29.76,West,268,3.0,3.0,59,0.00,,,0.00,0,Wunderground v.1.15,2013-02-27 20:40:00,
2013-02-27 15:50:00,59.2,44.9,29.76,WSW,241,2.0,2.0,59,0.00,,,0.00,0,Wunderground v.1.15,2013-02-27 20:50:00,
2013-02-27 16:00:00,58.7,44.4,29.76,SW,230,3.0,3.0,59,0.00,,,0.00,0,Wunderground v.1.15,2013-02-27 21:00:00,
2013-02-27 16:10:00,58.9,44.6,29.75,WSW,246,6.0,6.0,59,0.00,,,0.00,0,Wunderground v.1.15,2013-02-27 21:10:00,
2013-02-27 16:20:00,58.2,44.4,29.76,SW,220,6.0,6.0,60,0.00,,,0.00,0,Wunderground v.1.15,2013-02-27 21:20:00,
2013-02-27 16:30:00,57.6,44.2,29.76,SSW,207,1.0,1.0,61,0.00,,,0.00,0,Wunderground v.1.15,2013-02-27 21:30:00,
2013-02-27 16:40:00,56.4,44.0,29.76,West,261,3.0,3.0,63,0.00,,,0.00,0,Wunderground v.1.15,2013-02-27 21:40:00,
2013-02-27 16:50:00,55.4,43.8,29.77,West,267,2.0,2.0,65,0.00,,,0.00,0,Wunderground v.1.15,2013-02-27 21:50:00,
2013-02-27 17:00:00,55.0,43.8,29.77,WSW,247,7.0,7.0,66,0.00,,,0.00,0,Wunderground v.1.15,2013-02-27 22:00:00,
2013-02-27 17:10:00,54.4,44.1,29.77,SW,231,4.0,4.0,68,0.00,,,0.00,0,Wunderground v.1.15,2013-02-27 22:10:00,
2013-02-27 17:20:00,53.8,44.6,29.77,SW,229,3.0,3.0,71,0.00,,,0.00,0,Wunderground v.1.15,2013-02-27 22:20:00,
2013-02-27 17:30:00,53.2,44.8,29.77,SW,232,4.0,4.0,73,0.00,,,0.00,0,Wunderground v.1.15,2013-02-27 22:30:00,
2013-02-27 17:40:00,52.7,44.6,29.77,SSW,213,10.0,10.0,74,0.00,,,0.00,0,Wunderground v.1.15,2013-02-27 22:40:00,
2013-02-27 17:50:00,52.1,44.8,29.77,SSW,210,8.0,8.0,76,0.00,,,0.00,0,Wunderground v.1.15,2013-02-27 22:50:00,
2013-02-27 18:00:00,51.5,44.5,29.77,SSW,213,4.0,4.0,77,0.00,,,0.00,0,Wunderground v.1.15,2013-02-27 23:00:00,
2013-02-27 18:10:00,50.8,44.2,29.76,WSW,245,0.0,0.0,78,0.00,,,0.00,0,Wunderground v.1.15,2013-02-27 23:10:00,
2013-02-27 18:20:00,50.3,44.0,29.77,SW,226,1.0,1.0,79,0.00,,,0.00,0,Wunderground v.1.15,2013-02-27 23:20:00,
2013-02-27 18:30:00,49.8,43.9,29.77,SW,226,0.0,0.0,80,0.00,,,0.00,0,Wunderground v.1.15,2013-02-27 23:30:00,
2013-02-27 18:35:00,49.5,43.9,29.77,SW,233,0.0,0.0,81,0.00,,,0.00,0,Wunderground v.1.15,2013-02-27 23:35:00,
2013-02-27 18:40:00,49.4,44.1,29.77,West,269,0.0,0.0,82,0.00,,,0.00,0,Wunderground v.1.15,2013-02-27 23:40:00,
2013-02-27 18:50:00,49.0,43.7,29.77,West,270,0.0,0.0,82,0.00,,,0.00,0,Wunderground v.1.15,2013-02-27 23:50:00,
2013-02-27 18:55:00,48.9,44.0,29.77,SW,217,0.0,0.0,83,0.00,,,0.00,0,Wunderground v.1.15,2013-02-27 23:55:00,
2013-02-27 19:00:00,48.8,44.2,29.77,SW,218,0.0,0.0,84,0.00,,,0.00,0,Wunderground v.1.15,2013-02-28 00:00:00,
2013-02-27 19:10:00,48.5,43.6,29.77,WSW,238,1.0,1.0,83,0.00,,,0.00,0,Wunderground v.1.15,2013-02-28 00:10:00,
2013-02-27 19:15:00,48.4,43.8,29.77,WSW,238,0.0,1.0,84,0.00,,,0.00,0,Wunderground v.1.15,2013-02-28 00:15:00,
2013-02-27 19:25:00,48.1,43.5,29.77,WSW,238,0.0,0.0,84,0.00,,,0.00,0,Wunderground v.1.15,2013-02-28 00:25:00,
2013-02-27 19:30:00,47.9,43.6,29.77,SW,233,2.0,2.0,85,0.00,,,0.00,0,Wunderground v.1.15,2013-02-28 00:30:00,
2013-02-27 19:35:00,47.7,43.7,29.77,SW,226,2.0,2.0,86,0.00,,,0.00,0,Wunderground v.1.15,2013-02-28 00:35:00,
2013-02-27 19:45:00,47.4,43.7,29.77,WSW,238,0.0,1.0,87,0.00,,,0.00,0,Wunderground v.1.15,2013-02-28 00:45:00,
2013-02-27 19:55:00,47.3,43.9,29.77,WSW,248,0.0,0.0,88,0.00,,,0.00,0,Wunderground v.1.15,2013-02-28 00:55:00,
2013-02-27 20:00:00,47.3,44.2,29.78,WSW,247,1.0,8.0,89,0.00,,,-99.99,,WeatherLink 5.9.2,2013-02-28 01:00:00,
2013-02-27 20:05:00,46.9,43.5,29.77,SW,229,0.0,0.0,88,0.00,,,0.00,0,Wunderground v.1.15,2013-02-28 01:05:00,
2013-02-27 20:15:00,46.9,43.5,29.77,SW,218,0.0,0.0,88,0.00,,,0.00,0,Wunderground v.1.15,2013-02-28 01:15:00,
2013-02-27 20:25:00,47.2,44.1,29.77,WSW,244,0.0,2.0,89,0.00,,,0.00,0,Wunderground v.1.15,2013-02-28 01:25:00,
2013-02-27 20:30:00,47.4,44.6,29.78,SW,225,2.0,7.0,90,0.00,,,-99.99,,WeatherLink 5.9.2,2013-02-28 01:30:00,
2013-02-27 20:35:00,47.3,44.2,29.77,WNW,284,0.0,0.0,89,0.00,,,0.00,0,Wunderground v.1.15,2013-02-28 01:35:00,
2013-02-27 20:40:00,47.3,44.2,29.77,SW,224,0.0,0.0,89,0.00,,,0.00,0,Wunderground v.1.15,2013-02-28 01:40:00,
2013-02-27 20:50:00,47.4,44.3,29.77,WSW,239,0.0,0.0,89,0.00,,,0.00,0,Wunderground v.1.15,2013-02-28 01:50:00,
2013-02-27 21:00:00,47.4,44.3,29.77,SW,228,3.0,3.0,89,0.00,,,0.00,0,Wunderground v.1.15,2013-02-28 02:00:00,
2013-02-27 21:10:00,47.4,44.3,29.77,SW,233,3.0,3.0,89,0.00,,,0.00,0,Wunderground v.1.15,2013-02-28 02:10:00,
2013-02-27 21:20:00,47.5,44.4,29.78,SW,221,0.0,0.0,89,0.00,,,0.00,0,Wunderground v.1.15,2013-02-28 02:20:00,
2013-02-27 21:25:00,47.4,44.3,29.77,West,266,1.0,1.0,89,0.00,,,0.00,0,Wunderground v.1.15,2013-02-28 02:25:00,
2013-02-27 21:30:00,45.6,43.4,29.76,SW,225,0.0,5.0,92,0.00,,,-99.99,,WeatherLink 5.9.2,2013-02-28 02:30:00,
2013-02-27 21:35:00,47.3,44.5,29.78,SW,229,0.0,2.0,90,0.00,,,0.00,0,Wunderground v.1.15,2013-02-28 02:35:00,
2013-02-27 21:40:00,47.2,44.4,29.77,West,259,0.0,0.0,90,0.00,,,0.00,0,Wunderground v.1.15,2013-02-28 02:40:00,
2013-02-27 21:50:00,47.1,44.3,29.77,West,276,0.0,0.0,90,0.00,,,0.00,0,Wunderground v.1.15,2013-02-28 02:50:00,
2013-02-27 21:55:00,46.8,44.0,29.77,WSW,256,0.0,0.0,90,0.00,,,0.00,0,Wunderground v.1.15,2013-02-28 02:55:00,
2013-02-27 22:00:00,43.4,40.9,29.76,SW,225,0.0,3.0,91,0.00,,,-99.99,,WeatherLink 5.9.2,2013-02-28 03:00:00,
2013-02-27 22:05:00,46.5,43.7,29.76,WSW,241,2.0,2.0,90,0.00,,,0.00,0,Wunderground v.1.15,2013-02-28 03:05:00,
2013-02-27 22:10:00,46.3,43.8,29.76,SW,223,0.0,0.0,91,0.00,,,0.00,0,Wunderground v.1.15,2013-02-28 03:10:00,
2013-02-27 22:20:00,45.6,43.1,29.77,SW,222,0.0,0.0,91,0.00,,,0.00,0,Wunderground v.1.15,2013-02-28 03:20:00,
2013-02-27 22:30:00,44.8,42.6,29.76,SW,222,0.0,0.0,92,0.00,,,0.00,0,Wunderground v.1.15,2013-02-28 03:30:00,
2013-02-27 22:35:00,44.3,42.1,29.76,SW,223,0.0,0.0,92,0.00,,,0.00,0,Wunderground v.1.15,2013-02-28 03:35:00,
2013-02-27 22:45:00,43.6,41.1,29.76,SW,223,0.0,0.0,91,0.00,,,0.00,0,Wunderground v.1.15,2013-02-28 03:45:00,
2013-02-27 22:55:00,43.0,40.6,29.77,SW,223,0.0,0.0,91,0.00,,,0.00,0,Wunderground v.1.15,2013-02-28 03:55:00,
2013-02-27 23:00:00,42.2,41.1,29.75,West,270,0.0,4.0,96,0.00,,,-99.99,,WeatherLink 5.9.2,2013-02-28 04:00:00,
2013-02-27 23:05:00,42.6,40.2,29.76,SW,223,0.0,0.0,91,0.00,,,0.00,0,Wunderground v.1.15,2013-02-28 04:05:00,
2013-02-27 23:15:00,42.2,40.3,29.76,SW,223,0.0,0.0,93,0.00,,,0.00,0,Wunderground v.1.15,2013-02-28 04:15:00,
2013-02-27 23:20:00,42.1,40.5,29.76,SW,226,0.0,0.0,94,0.00,,,0.00,0,Wunderground v.1.15,2013-02-28 04:20:00,
2013-02-27 23:30:00,42.3,41.0,29.75,West,266,0.0,0.0,95,0.00,,,0.00,0,Wunderground v.1.15,2013-02-28 04:30:00,
2013-02-27 23:40:00,42.4,41.3,29.75,West,267,0.0,0.0,96,0.00,,,0.00,0,Wunderground v.1.15,2013-02-28 04:40:00,
2013-02-27 23:50:00,42.2,40.9,29.75,West,267,0.0,0.0,95,0.00,,,0.00,0,Wunderground v.1.15,2013-02-28 04:50:00,